createdAt,value
2023-03-11T00:00:46.883Z,23.13
2023-03-11T00:03:16.012Z,21.42
2023-03-11T00:05:45.389Z,24.52
2023-03-11T00:08:15.295Z,22.75
2023-03-11T00:10:45.173Z,21.92
2023-03-11T00:13:14.055Z,25.30
2023-03-11T00:15:44.273Z,24.50
2023-03-11T00:18:11.468Z,25.10
2023-03-11T00:20:40.511Z,26.67
2023-03-11T00:23:08.808Z,27.20
2023-03-11T00:25:37.684Z,27.00
2023-03-11T00:28:09.674Z,26.10
2023-03-11T00:30:37.246Z,23.83
2023-03-11T00:33:05.117Z,25.30
2023-03-11T00:35:34.274Z,25.13
2023-03-11T00:38:04.378Z,25.23
2023-03-11T00:40:33.432Z,27.35
2023-03-11T00:43:03.608Z,26.73
2023-03-11T00:47:58.259Z,27.75
2023-03-11T00:50:29.386Z,31.42
2023-03-11T00:53:00.163Z,28.50
2023-03-11T00:55:34.146Z,29.75
2023-03-11T00:58:06.053Z,27.77
2023-03-11T01:00:43.168Z,32.05
2023-03-11T01:03:10.290Z,32.40
2023-03-11T01:05:37.188Z,26.53
2023-03-11T01:08:04.877Z,27.40
2023-03-11T01:10:36.132Z,27.95
2023-03-11T01:13:03.685Z,26.67
2023-03-11T01:15:36.135Z,22.17
2023-03-11T01:18:04.269Z,23.58
2023-03-11T01:20:33.906Z,23.17
2023-03-11T01:23:00.846Z,20.23
2023-03-11T01:25:28.664Z,17.67
2023-03-11T01:27:58.150Z,13.55
2023-03-11T01:30:32.038Z,14.13
2023-03-11T01:32:59.471Z,10.00
2023-03-11T01:35:29.299Z,6.13
2023-03-11T01:37:56.981Z,8.70
2023-03-11T01:40:35.817Z,8.18
2023-03-11T01:43:08.073Z,5.82
2023-03-11T01:45:35.779Z,5.63
2023-03-11T01:48:03.452Z,5.13
2023-03-11T01:50:44.533Z,4.78
2023-03-11T01:53:14.181Z,3.17
2023-03-11T01:55:42.592Z,3.35
2023-03-11T01:58:14.361Z,6.63
2023-03-11T02:00:43.182Z,2.65
2023-03-11T02:03:18.409Z,3.60
2023-03-11T02:05:46.439Z,3.25
2023-03-11T02:10:42.202Z,3.22
2023-03-11T02:13:10.584Z,4.18
2023-03-11T02:15:39.851Z,5.63
2023-03-11T02:18:07.897Z,5.65
2023-03-11T02:20:55.371Z,4.65
2023-03-11T02:23:28.486Z,7.13
2023-03-11T02:26:15.652Z,6.65
2023-03-11T02:28:46.898Z,9.35
2023-03-11T02:31:15.196Z,10.55
2023-03-11T02:33:46.570Z,10.45
2023-03-11T02:36:40.052Z,12.35
2023-03-11T02:39:12.637Z,12.13
2023-03-11T02:41:46.689Z,13.15
2023-03-11T02:44:18.851Z,12.18
2023-03-11T02:46:47.762Z,12.05
2023-03-11T02:49:15.403Z,10.38
2023-03-11T02:51:42.214Z,13.82
2023-03-11T02:54:11.759Z,12.88
2023-03-11T02:56:38.860Z,13.20
2023-03-11T02:59:05.797Z,11.10
2023-03-11T03:01:32.696Z,15.38
2023-03-11T03:04:00.160Z,12.23
2023-03-11T03:06:30.669Z,13.65
2023-03-11T03:08:57.743Z,16.80
2023-03-11T03:11:25.119Z,14.98
2023-03-11T03:13:54.271Z,14.77
2023-03-11T03:16:21.409Z,15.40
2023-03-11T03:18:52.392Z,16.58
2023-03-11T03:21:21.914Z,15.30
2023-03-11T03:23:49.033Z,18.08
2023-03-11T03:26:16.370Z,16.08
2023-03-11T03:28:46.248Z,14.00
2023-03-11T03:31:13.524Z,15.38
2023-03-11T03:33:42.331Z,14.70
2023-03-11T03:36:14.554Z,14.38
2023-03-11T03:38:44.943Z,11.45
2023-03-11T03:41:15.630Z,15.23
2023-03-11T03:43:42.971Z,13.45
2023-03-11T03:46:10.161Z,10.60
2023-03-11T03:48:43.716Z,13.80
2023-03-11T03:51:13.332Z,12.27
2023-03-11T03:53:48.807Z,11.70
2023-03-11T03:56:17.561Z,7.35
2023-03-11T03:58:47.465Z,13.65
2023-03-11T04:01:14.825Z,10.80
2023-03-11T04:03:42.137Z,9.47
2023-03-11T04:06:24.435Z,9.52
2023-03-11T04:08:57.486Z,10.10
2023-03-11T04:11:29.314Z,9.18
2023-03-11T04:13:56.962Z,6.57
2023-03-11T04:16:27.431Z,7.30
2023-03-11T04:19:00.319Z,9.63
2023-03-11T04:21:28.260Z,6.00
2023-03-11T04:26:30.334Z,7.85
2023-03-11T04:28:57.495Z,7.40
2023-03-11T04:31:26.570Z,7.10
2023-03-11T04:33:54.617Z,6.80
2023-03-11T04:36:26.224Z,12.05
2023-03-11T04:38:53.183Z,8.77
2023-03-11T04:41:21.553Z,6.55
2023-03-11T04:43:51.708Z,6.95
2023-03-11T04:46:19.305Z,7.38
2023-03-11T04:48:46.168Z,7.38
2023-03-11T04:51:13.496Z,5.28
2023-03-11T04:53:40.586Z,6.85
2023-03-11T04:56:10.665Z,7.68
2023-03-11T04:58:38.915Z,7.68
2023-03-11T05:01:06.132Z,7.47
2023-03-11T05:03:33.110Z,7.65
2023-03-11T05:06:00.292Z,6.28
2023-03-11T05:08:27.416Z,7.57
2023-03-11T05:10:54.268Z,6.53
2023-03-11T05:13:22.761Z,7.32
2023-03-11T05:15:51.533Z,8.38
2023-03-11T05:18:18.458Z,9.25
2023-03-11T05:20:48.516Z,6.55
2023-03-11T05:23:16.147Z,8.02
2023-03-11T05:25:43.810Z,8.45
2023-03-11T05:28:10.982Z,11.77
2023-03-11T05:30:47.007Z,9.57
2023-03-11T05:33:13.935Z,9.65
2023-03-11T05:35:40.910Z,10.32
2023-03-11T05:38:07.838Z,10.50
2023-03-11T05:40:34.918Z,9.90
2023-03-11T05:43:01.800Z,11.15
2023-03-11T05:45:31.515Z,13.75
2023-03-11T05:48:00.745Z,13.02
2023-03-11T05:50:30.583Z,14.43
2023-03-11T05:52:57.627Z,15.40
2023-03-11T05:55:29.893Z,18.30
2023-03-11T05:57:56.774Z,15.82
2023-03-11T06:00:29.372Z,19.60
2023-03-11T06:02:58.605Z,18.90
2023-03-11T06:05:25.650Z,16.67
2023-03-11T06:07:57.681Z,17.08
2023-03-11T06:10:24.617Z,22.90
2023-03-11T06:12:51.779Z,22.15
2023-03-11T06:15:28.300Z,17.92
2023-03-11T06:17:55.554Z,22.83
2023-03-11T06:20:22.559Z,19.25
2023-03-11T06:22:50.057Z,16.40
2023-03-11T06:25:17.551Z,20.07
2023-03-11T06:27:50.654Z,19.40
2023-03-11T06:30:18.456Z,23.38
2023-03-11T06:32:55.085Z,19.58
2023-03-11T06:35:22.220Z,18.60
2023-03-11T06:37:51.148Z,20.55
2023-03-11T06:40:18.685Z,20.88
2023-03-11T06:42:51.460Z,19.83
2023-03-11T06:45:22.236Z,17.50
2023-03-11T06:47:52.575Z,22.23
2023-03-11T06:50:23.570Z,19.98
2023-03-11T06:52:51.415Z,20.15
2023-03-11T06:55:18.266Z,19.02
2023-03-11T06:57:45.701Z,21.37
2023-03-11T07:00:14.034Z,20.42
2023-03-11T07:02:45.720Z,17.90
2023-03-11T07:05:14.143Z,21.70
2023-03-11T07:07:41.218Z,19.02
2023-03-11T07:10:08.470Z,23.10
2023-03-11T07:12:35.802Z,21.10
2023-03-11T07:15:03.211Z,22.40
2023-03-11T07:17:31.575Z,23.02
2023-03-11T07:19:58.449Z,22.45
2023-03-11T07:22:25.345Z,21.42
2023-03-11T07:24:52.184Z,23.63
2023-03-11T07:27:19.708Z,14.93
2023-03-11T07:29:46.697Z,19.55
2023-03-11T07:32:14.190Z,20.52
2023-03-11T07:34:41.476Z,20.48
2023-03-11T07:37:08.517Z,22.15
2023-03-11T07:39:39.500Z,20.65
2023-03-11T07:42:06.615Z,19.48
2023-03-11T07:44:36.755Z,20.15
2023-03-11T07:47:05.344Z,19.95
2023-03-11T07:49:33.354Z,17.75
2023-03-11T07:52:00.741Z,17.67
2023-03-11T07:54:30.553Z,18.65
2023-03-11T07:57:00.052Z,20.67
2023-03-11T07:59:26.937Z,18.15
2023-03-11T08:01:53.743Z,18.55
2023-03-11T08:04:21.137Z,18.00
2023-03-11T08:06:48.519Z,18.70
2023-03-11T08:09:15.730Z,17.42
2023-03-11T08:11:46.477Z,18.67
2023-03-11T08:14:14.373Z,16.42
2023-03-11T08:16:41.326Z,15.43
2023-03-11T08:19:10.883Z,20.48
2023-03-11T08:21:39.934Z,14.27
2023-03-11T08:24:12.456Z,15.77
2023-03-11T08:26:39.674Z,15.60
2023-03-11T08:29:06.546Z,18.27
2023-03-11T08:31:40.223Z,14.43
2023-03-11T08:34:10.072Z,13.50
2023-03-11T08:36:37.087Z,18.55
2023-03-11T08:39:04.261Z,15.55
2023-03-11T08:41:31.447Z,17.10
2023-03-11T08:43:58.421Z,17.90
2023-03-11T08:46:31.077Z,21.80
2023-03-11T08:49:00.932Z,15.30
2023-03-11T08:51:30.230Z,14.00
2023-03-11T08:53:57.224Z,15.00
2023-03-11T08:56:24.384Z,14.07
2023-03-11T08:58:51.695Z,15.90
2023-03-11T09:01:20.251Z,18.23
2023-03-11T09:03:47.169Z,15.18
2023-03-11T09:06:22.404Z,15.88
2023-03-11T09:08:49.541Z,16.17
2023-03-11T09:11:17.887Z,15.40
2023-03-11T09:13:48.130Z,14.40
2023-03-11T09:16:21.240Z,16.52
2023-03-11T09:18:48.555Z,18.02
2023-03-11T09:21:15.528Z,17.92
2023-03-11T09:23:44.400Z,13.73
2023-03-11T09:26:12.298Z,17.30
2023-03-11T09:28:41.971Z,15.90
2023-03-11T09:31:09.294Z,15.85
2023-03-11T09:33:44.487Z,17.85
2023-03-11T09:36:14.946Z,15.93
2023-03-11T09:38:42.490Z,15.68
2023-03-11T09:41:18.618Z,12.90
2023-03-11T09:44:16.694Z,14.32
2023-03-11T09:46:46.422Z,16.20
2023-03-11T09:49:42.013Z,17.92
2023-03-11T09:52:47.393Z,14.40
2023-03-11T09:55:45.427Z,16.10
2023-03-11T09:58:27.446Z,14.93
2023-03-11T10:00:54.909Z,16.77
2023-03-11T10:03:40.340Z,16.27
2023-03-11T10:06:17.759Z,17.65
2023-03-11T10:08:50.508Z,17.98
2023-03-11T10:11:45.360Z,17.50
2023-03-11T10:14:21.212Z,18.52
2023-03-11T10:16:53.795Z,15.52
2023-03-11T10:19:49.936Z,17.90
2023-03-11T10:22:31.193Z,17.35
2023-03-11T10:25:13.773Z,17.08
2023-03-11T10:27:49.651Z,18.70
2023-03-11T10:30:35.541Z,20.02
2023-03-11T10:33:14.269Z,18.80
2023-03-11T10:35:44.692Z,20.38
2023-03-11T10:38:21.574Z,18.83
2023-03-11T10:40:55.628Z,17.10
2023-03-11T10:44:04.404Z,14.95
2023-03-11T10:46:31.458Z,13.70
2023-03-11T10:48:58.375Z,17.88
2023-03-11T10:51:32.539Z,18.45
2023-03-11T10:54:01.158Z,16.55
2023-03-11T10:56:33.959Z,15.80
2023-03-11T10:59:01.970Z,13.20
2023-03-11T11:03:58.697Z,16.33
2023-03-11T11:06:31.402Z,14.93
2023-03-11T11:09:06.455Z,16.50
2023-03-11T11:11:40.894Z,14.02
2023-03-11T11:14:11.404Z,14.90
2023-03-11T11:16:38.810Z,12.63
2023-03-11T11:19:13.813Z,14.00
2023-03-11T11:21:48.775Z,12.48
2023-03-11T11:24:31.893Z,13.90
2023-03-11T11:27:28.444Z,13.35
2023-03-11T11:30:15.744Z,11.30
2023-03-11T11:32:42.645Z,12.57
2023-03-11T11:35:17.175Z,12.93
2023-03-11T11:37:59.666Z,11.55
2023-03-11T11:40:31.898Z,10.00
2023-03-11T11:43:06.306Z,10.73
2023-03-11T11:45:37.303Z,11.13
2023-03-11T11:48:48.388Z,12.35
2023-03-11T11:51:30.281Z,10.00
2023-03-11T11:54:38.964Z,10.77
2023-03-11T11:57:15.439Z,11.00
2023-03-11T11:59:45.182Z,11.32
2023-03-11T12:02:26.846Z,10.25
2023-03-11T12:05:31.300Z,12.20
2023-03-11T12:08:46.622Z,11.25
2023-03-11T12:11:36.025Z,11.85
2023-03-11T12:14:10.710Z,11.85
2023-03-11T12:16:58.708Z,10.95
2023-03-11T12:19:47.974Z,12.48
2023-03-11T12:22:33.396Z,15.60
2023-03-11T12:25:22.420Z,14.18
2023-03-11T12:28:09.376Z,11.07
2023-03-11T12:30:43.894Z,11.43
2023-03-11T12:33:31.249Z,14.48
2023-03-11T12:35:59.938Z,11.38
2023-03-11T12:38:47.323Z,12.45
2023-03-11T12:41:14.125Z,11.60
2023-03-11T12:43:40.968Z,9.35
2023-03-11T12:46:10.358Z,10.25
2023-03-11T12:48:47.108Z,10.02
2023-03-11T12:51:37.284Z,17.27
2023-03-11T12:54:29.696Z,11.55
2023-03-11T12:57:16.319Z,9.25
2023-03-11T13:00:24.905Z,6.75
2023-03-11T13:03:43.003Z,8.23
2023-03-11T13:06:20.333Z,7.70
2023-03-11T13:08:54.743Z,7.95
2023-03-11T13:11:33.132Z,8.75
2023-03-11T13:14:33.708Z,6.95
2023-03-11T13:17:30.821Z,10.80
2023-03-11T13:19:59.086Z,7.65
2023-03-11T13:22:53.798Z,11.52
2023-03-11T13:25:30.292Z,10.63
2023-03-11T13:28:16.549Z,11.23
2023-03-11T13:31:09.934Z,9.65
2023-03-11T13:33:47.581Z,9.10
2023-03-11T13:36:42.333Z,9.88
2023-03-11T13:39:31.257Z,10.50
2023-03-11T13:41:58.087Z,9.77
2023-03-11T13:44:29.120Z,10.27
2023-03-11T13:47:14.566Z,8.65
2023-03-11T13:50:06.220Z,8.93
2023-03-11T13:52:43.004Z,9.15
2023-03-11T13:55:19.800Z,9.02
2023-03-11T13:57:55.176Z,7.88
2023-03-11T14:00:27.634Z,7.18
2023-03-11T14:02:57.686Z,7.13
2023-03-11T14:05:30.266Z,6.82
2023-03-11T14:08:27.330Z,9.77
2023-03-11T14:11:10.554Z,6.15
2023-03-11T14:13:50.133Z,5.82
2023-03-11T14:16:19.072Z,4.78
2023-03-11T14:19:09.311Z,5.15
2023-03-11T14:21:36.506Z,4.72
2023-03-11T14:24:07.029Z,5.38
2023-03-11T14:26:35.354Z,6.35
2023-03-11T14:29:10.564Z,6.65
2023-03-11T14:31:39.465Z,6.57
2023-03-11T14:34:28.680Z,6.78
2023-03-11T14:37:00.437Z,6.18
2023-03-11T14:39:27.224Z,8.23
2023-03-11T14:42:19.265Z,7.75
2023-03-11T14:45:11.854Z,9.93
2023-03-11T14:47:39.985Z,6.05
2023-03-11T14:52:44.388Z,6.47
2023-03-11T14:55:19.965Z,3.28
2023-03-11T14:57:52.321Z,3.50
2023-03-11T15:00:24.822Z,3.78
2023-03-11T15:03:20.525Z,2.97
2023-03-11T15:05:58.196Z,4.07
2023-03-11T15:08:29.581Z,3.40
2023-03-11T15:11:11.752Z,3.63
2023-03-11T15:13:41.373Z,4.03
2023-03-11T15:16:44.173Z,4.25
2023-03-11T15:19:31.544Z,3.13
2023-03-11T15:22:20.470Z,3.33
2023-03-11T15:24:51.688Z,2.65
2023-03-11T15:27:34.118Z,2.88
2023-03-11T15:30:16.731Z,3.13
2023-03-11T15:32:44.350Z,2.72
2023-03-11T15:35:17.796Z,4.53
2023-03-11T15:37:46.066Z,4.57
2023-03-11T15:43:03.289Z,2.78
2023-03-11T15:45:30.661Z,3.85
2023-03-11T15:47:57.505Z,2.40
2023-03-11T15:50:40.119Z,1.90
2023-03-11T15:53:13.773Z,3.75
2023-03-11T15:55:40.654Z,2.17
2023-03-11T15:58:09.334Z,3.10
2023-03-11T16:00:37.391Z,3.33
2023-03-11T16:03:04.839Z,2.97
2023-03-11T16:05:31.800Z,2.47
2023-03-11T16:07:58.680Z,2.90
2023-03-11T16:10:28.690Z,4.60
2023-03-11T16:12:56.148Z,4.65
2023-03-11T16:15:29.829Z,6.45
2023-03-11T16:17:58.861Z,5.55
2023-03-11T16:20:28.258Z,4.85
2023-03-11T16:22:58.558Z,4.40
2023-03-11T16:25:35.846Z,3.38
2023-03-11T16:28:03.666Z,4.13
2023-03-11T16:30:32.701Z,3.25
2023-03-11T16:33:01.520Z,3.60
2023-03-11T16:35:32.884Z,4.10
2023-03-11T16:38:00.120Z,3.50
2023-03-11T16:40:29.017Z,3.43
2023-03-11T16:43:02.451Z,3.28
2023-03-11T16:45:29.734Z,6.88
2023-03-11T16:47:56.795Z,3.60
2023-03-11T16:50:26.775Z,4.10
2023-03-11T16:52:55.522Z,5.63
2023-03-11T16:55:23.085Z,5.00
2023-03-11T16:57:50.006Z,6.00
2023-03-11T17:00:18.089Z,4.03
2023-03-11T17:05:12.276Z,2.80
2023-03-11T17:07:39.903Z,3.70
2023-03-11T17:10:08.987Z,3.85
2023-03-11T17:12:36.335Z,3.70
2023-03-11T17:15:05.049Z,5.43
2023-03-11T17:17:32.075Z,7.63
2023-03-11T17:19:58.964Z,4.93
2023-03-11T17:22:25.781Z,3.08
2023-03-11T17:24:53.322Z,6.93
2023-03-11T17:27:24.462Z,6.50
2023-03-11T17:29:51.326Z,6.47
2023-03-11T17:32:20.039Z,4.25
2023-03-11T17:34:46.856Z,8.30
2023-03-11T17:37:14.662Z,4.93
2023-03-11T17:39:41.451Z,5.25
2023-03-11T17:42:08.623Z,7.00
2023-03-11T17:44:50.270Z,11.18
2023-03-11T17:47:19.753Z,5.43
2023-03-11T17:49:48.067Z,5.13
2023-03-11T17:52:14.981Z,8.60
2023-03-11T17:54:41.884Z,5.40
2023-03-11T17:57:08.798Z,6.28
2023-03-11T17:59:35.764Z,5.22
2023-03-11T18:02:02.815Z,6.47
2023-03-11T18:04:29.736Z,3.77
2023-03-11T18:06:56.891Z,5.87
2023-03-11T18:09:23.882Z,5.72
2023-03-11T18:11:50.873Z,3.67
2023-03-11T18:14:17.627Z,3.65
2023-03-11T18:16:44.659Z,4.57
2023-03-11T18:19:13.063Z,6.20
2023-03-11T18:21:39.941Z,4.10
2023-03-11T18:24:07.128Z,6.55
2023-03-11T18:26:34.041Z,4.70
2023-03-11T18:29:01.280Z,6.38
2023-03-11T18:31:30.050Z,4.93
2023-03-11T18:34:02.304Z,6.47
2023-03-11T18:36:37.568Z,5.65
2023-03-11T18:39:05.480Z,2.45
2023-03-11T18:41:35.265Z,3.72
2023-03-11T18:44:02.697Z,3.88
2023-03-11T18:46:31.861Z,3.63
2023-03-11T18:49:01.005Z,5.18
2023-03-11T18:51:29.775Z,4.90
2023-03-11T18:54:01.719Z,2.90
2023-03-11T18:56:31.071Z,5.63
2023-03-11T18:58:59.281Z,2.45
2023-03-11T19:01:27.256Z,3.20
2023-03-11T19:06:24.042Z,5.13
2023-03-11T19:08:51.354Z,2.15
2023-03-11T19:11:20.736Z,6.57
2023-03-11T19:13:48.311Z,4.75
2023-03-11T19:16:23.794Z,2.28
2023-03-11T19:18:55.089Z,5.75
2023-03-11T19:21:22.639Z,2.60
2023-03-11T19:23:52.087Z,3.20
2023-03-11T19:26:18.856Z,3.22
2023-03-11T19:28:45.720Z,7.03
2023-03-11T19:31:13.207Z,4.38
2023-03-11T19:33:46.832Z,6.85
2023-03-11T19:36:13.806Z,4.15
2023-03-11T19:38:40.680Z,6.57
2023-03-11T19:41:14.463Z,4.13
2023-03-11T19:43:42.311Z,2.47
2023-03-11T19:46:12.249Z,3.20
2023-03-11T19:48:39.339Z,4.18
2023-03-11T19:51:06.871Z,4.05
2023-03-11T19:53:35.482Z,5.15
2023-03-11T19:56:04.132Z,3.42
2023-03-11T19:58:31.535Z,7.03
2023-03-11T20:00:59.921Z,8.02
2023-03-11T20:03:27.373Z,5.85
2023-03-11T20:05:57.665Z,5.88
2023-03-11T20:08:25.874Z,5.78
2023-03-11T20:10:53.813Z,4.82
2023-03-11T20:15:48.369Z,3.67
2023-03-11T20:18:15.629Z,4.20
2023-03-11T20:20:43.278Z,7.90
2023-03-11T20:23:11.410Z,4.65
2023-03-11T20:28:08.700Z,3.15
2023-03-11T20:30:37.758Z,3.70
2023-03-11T20:33:04.751Z,5.18
2023-03-11T20:35:31.755Z,6.47
2023-03-11T20:37:59.471Z,9.15
2023-03-11T20:40:26.332Z,15.73
2023-03-11T20:42:53.669Z,6.15
2023-03-11T20:45:23.346Z,5.57
2023-03-11T20:47:53.560Z,4.57
2023-03-11T20:50:23.937Z,6.90
2023-03-11T20:52:54.001Z,5.22
2023-03-11T20:55:22.894Z,4.78
2023-03-11T20:57:49.673Z,10.00
2023-03-11T21:00:16.885Z,5.10
2023-03-11T21:02:43.942Z,7.20
2023-03-11T21:05:12.600Z,5.33
2023-03-11T21:07:39.893Z,28.73
2023-03-11T21:10:10.553Z,21.50
2023-03-11T21:12:37.682Z,12.40
2023-03-11T21:15:06.111Z,4.83
2023-03-11T21:17:33.880Z,7.47
2023-03-11T21:20:05.336Z,4.10
2023-03-11T21:22:33.412Z,5.18
2023-03-11T21:27:27.746Z,4.30
2023-03-11T21:29:55.880Z,2.25
2023-03-11T21:32:23.817Z,9.32
2023-03-11T21:34:51.112Z,5.38
2023-03-11T21:37:18.093Z,4.25
2023-03-11T21:39:49.388Z,4.53
2023-03-11T21:42:16.504Z,4.50
2023-03-11T21:44:43.433Z,5.47
2023-03-11T21:47:11.013Z,6.57
2023-03-11T21:49:38.823Z,6.25
2023-03-11T21:52:06.323Z,5.93
2023-03-11T21:54:33.166Z,3.88
2023-03-11T21:57:00.047Z,4.80
2023-03-11T21:59:27.298Z,3.90
2023-03-11T22:01:54.422Z,3.77
2023-03-11T22:04:21.325Z,5.23
2023-03-11T22:06:48.548Z,5.00
2023-03-11T22:09:15.766Z,2.33
2023-03-11T22:11:42.923Z,7.68
2023-03-11T22:14:09.811Z,2.60
2023-03-11T22:16:39.914Z,8.00
2023-03-11T22:19:08.736Z,6.65
2023-03-11T22:21:36.278Z,7.68
2023-03-11T22:24:03.165Z,14.65
2023-03-11T22:26:29.998Z,2.95
2023-03-11T22:28:56.844Z,4.82
2023-03-11T22:31:23.791Z,4.18
2023-03-11T22:33:50.980Z,5.47
2023-03-11T22:36:18.155Z,3.53
2023-03-11T22:38:45.481Z,6.80
2023-03-11T22:41:13.615Z,7.72
2023-03-11T22:43:40.466Z,4.65
2023-03-11T22:46:07.568Z,3.45
2023-03-11T22:48:35.355Z,4.60
2023-03-11T22:51:02.513Z,3.45
2023-03-11T22:53:29.567Z,3.40
2023-03-11T22:55:56.392Z,5.90
2023-03-11T22:58:26.001Z,4.50
2023-03-11T23:00:52.917Z,2.47
2023-03-11T23:03:19.874Z,8.75
2023-03-11T23:05:46.911Z,5.10
2023-03-11T23:08:16.256Z,5.00
2023-03-11T23:10:47.690Z,10.02
2023-03-11T23:13:15.239Z,3.20
2023-03-11T23:15:46.731Z,7.47
2023-03-11T23:18:15.760Z,5.43
2023-03-11T23:20:43.852Z,4.75
2023-03-11T23:23:12.112Z,4.57
2023-03-11T23:25:40.668Z,5.47
2023-03-11T23:28:07.813Z,6.72
2023-03-11T23:30:35.169Z,5.50
2023-03-11T23:33:04.985Z,4.63
2023-03-11T23:35:32.814Z,3.75
2023-03-11T23:38:00.109Z,5.22
2023-03-11T23:40:27.835Z,2.20
2023-03-11T23:42:54.965Z,5.90
2023-03-11T23:45:21.944Z,3.67
2023-03-11T23:47:48.920Z,2.67
2023-03-11T23:50:15.882Z,6.75
2023-03-11T23:52:43.490Z,20.23
2023-03-11T23:55:10.879Z,3.90
2023-03-11T23:57:41.073Z,5.10
